Hovedside
METAR-TAF:

METAR-TAF

Lufthavner :

Ventspils, Latvia

breddegrad: 57-21-28N, lengdegrad: 021-32-39E, høyde over havet: 6 m

Gjeldene værobservasjon

Denne rapporten ble laget for 27 minutter siden, klokken 03:50 UTC
Vind 25 kt fra Nord-nordvest med vindkast opp mot 38 kt
Temperatur 8°C
Luftfuktighet 87%
Trykk 985 hPa
Sikt 10 km eller mer
Få skyer i en høyde av 1600 ft
Brutte skyer i en høyde av 2200 ft
Brutte skyer i en høyde av 2700 ft

METAR: EVVA 240350Z AUTO 34025G38KT 9999 FEW016 BKN022 BKN027 08/06 Q0985

Tid: 07:17 (04:17 UTC)


TAF: fraværende

Værobservasjoner og værvarsel for over 4000 flyplasser (METAR- og TAF-rapporter).

Tilgjengelige stasjoner er representert av de røde og gule prikkene på kartet.

Hold musepekeren over prikken for å se navnet på stasjonen.

Klikk så for å se værobservasjoner og -varsler.

For å forandre kartet kan du klikke på den grønne knappen med svart kryss for å zoome inn, på den grønne knappen med strek for å zoome ut, eller på de grønne pilene for å se tilstøtende kart.


METAR-TAF: